LICT/TPS METAR and TAF weather

Enter ICAO airport designator
Station Type Date Time Source
LICT METAR 2020/07/15 07:55 UTC NOAA

LICT 150755Z 25007KT 9999 FEW020 26/22 Q1015


Station Type Date Time Source
LICT Decoded METAR 2020/07/15 07:55 UTC NOAA

Trapani / Birgi, Italy (LICT) 37-55N 012-30E 14M
Jul 15, 2020 - 03:55 AM EDT / 2020.07.15 0755 UTC
Wind: from the WSW (250 degrees) at 8 MPH (7 KT):0
Visibility: greater than 7 mile(s):0
Sky conditions: mostly clear
Temperature: 78 F (26 C)
Dew Point: 71 F (22 C)
Relative Humidity: 78%
Pressure (altimeter): 29.97 in. Hg (1015 hPa)
ob: LICT 150755Z 25007KT 9999 FEW020 26/22 Q1015
cycle: 8

Station Type Date Time Source
LICT TAF 2019/01/11 09:24 UTC NOAA

TAF TAF LICT 110800Z 1109/1121 33012KT 9999 SCT025

Example: see airport list